Flight Track Log - Related Links

Times and Time Zones

All times are in EDT time to prevent confusion due to time zone crossing. See the SKW7363 flight status page for this flight to view local times or setup timezone preferences in your user account.

Time Position Orientation Groundspeed Altitude Reporting Facility
EDT Latitude Longitude Course Direction KTS MPH feet Rate Location/Type
Sun 09:59:57 PM 44.5856 -108.9050 94° East 221 254 9,700  Level Salt Lake Center
Sun 10:00:00 PM 44.1720 -108.6959 158° South  Level FlightAware Approximate
Sun 10:00:59 PM 44.5283 -108.9408 204° Southwest 235 270 10,900  Level Salt Lake Center
Sun 10:01:00 PM 44.0802 -108.6452 159° South  Level FlightAware Approximate
Sun 10:02:00 PM 43.9882 -108.5950 159° South  Level FlightAware Approximate
Sun 10:02:00 PM 44.4708 -109.0086 220° Southwest 256 295 13,000  Level Salt Lake Center
Sun 10:03:00 PM 43.8969 -108.5425 157° South  Level FlightAware Approximate
Sun 10:03:02 PM 44.4111 -109.0767 219° Southwest 272 313 14,900  Level Salt Lake Center
Sun 10:04:00 PM 43.8058 -108.4894 157° South  Level FlightAware Approximate
Sun 10:04:04 PM 44.3514 -109.1486 221° Southwest 280 322 16,900  Level Salt Lake Center
Sun 10:05:05 PM 44.2769 -109.2361 220° Southwest 289 333 18,900 1,659 Climbing Salt Lake Center
Sun 10:06:07 PM 44.2133 -109.3111 220° Southwest 297 342 20,300 1,306 Climbing Salt Lake Center
Sun 10:07:09 PM 44.1478 -109.3878 220° Southwest 304 350 21,600 1,220 Climbing Salt Lake Center
Sun 10:08:10 PM 44.0803 -109.4667 220° Southwest 313 360 22,800 1,268 Climbing Salt Lake Center
Sun 10:09:12 PM 44.0042 -109.5539 220° Southwest 324 373 24,200 1,161 Climbing Salt Lake Center
Sun 10:10:14 PM 43.9375 -109.6331 221° Southwest 329 379 25,200 878 Climbing Salt Lake Center
Sun 10:11:15 PM 43.8572 -109.7261 220° Southwest 337 388 26,000 390 Climbing Salt Lake Center
Sun 10:12:17 PM 43.7847 -109.8086 219° Southwest 348 400 26,000  Level Salt Lake Center
Sun 10:13:18 PM 43.7133 -109.8911 220° Southwest 349 402 26,000  Level Salt Lake Center
Sun 10:14:20 PM 43.6297 -109.9872 220° Southwest 349 402 26,000  Level Salt Lake Center
Sun 10:15:22 PM 43.5600 -110.0661 219° Southwest 343 395 26,000  Level Salt Lake Center
Sun 10:16:23 PM 43.4778 -110.1583 219° Southwest 341 392 26,000  Level Salt Lake Center
Sun 10:17:25 PM 43.4078 -110.2372 219° Southwest 340 391 26,000  Level Salt Lake Center
Sun 10:18:27 PM 43.3256 -110.3322 220° Southwest 345 397 26,000  Level Salt Lake Center
Sun 10:19:28 PM 43.2547 -110.4117 219° Southwest 344 396 26,000  Level Salt Lake Center
Sun 10:20:30 PM 43.1839 -110.4958 221° Southwest 347 399 26,000  Level Salt Lake Center
Sun 10:21:32 PM 43.1014 -110.5864 219° Southwest 341 392 26,000  Level Salt Lake Center
Sun 10:22:34 PM 43.0300 -110.6653 219° Southwest 344 396 26,000  Level Salt Lake Center
Sun 10:23:35 PM 42.9464 -110.7572 219° Southwest 345 397 26,000  Level Salt Lake Center
Sun 10:24:37 PM 42.8767 -110.8361 220° Southwest 341 392 26,000  Level Salt Lake Center
Sun 10:25:39 PM 42.8047 -110.9156 219° Southwest 345 397 26,000  Level Salt Lake Center
Sun 10:26:40 PM 42.7208 -111.0075 219° Southwest 346 398 26,000  Level Salt Lake Center
Sun 10:27:42 PM 42.6517 -111.0839 219° Southwest 344 396 26,000  Level Salt Lake Center
Sun 10:28:44 PM 42.5789 -111.1636 219° Southwest 339 390 26,000  Level Salt Lake Center
Sun 10:29:45 PM 42.4908 -111.2603 219° Southwest 339 390 26,000  Level Salt Lake Center
Sun 10:30:47 PM 42.4158 -111.3406 218° Southwest 345 397 26,000  Level Salt Lake Center
Sun 10:31:49 PM 42.3417 -111.4219 219° Southwest 345 397 26,000  Level Salt Lake Center
Sun 10:32:50 PM 42.2658 -111.5025 218° Southwest 346 398 26,000  Level Salt Lake Center
Sun 10:33:52 PM 42.1917 -111.5842 219° Southwest 346 398 26,000  Level Salt Lake Center
Sun 10:34:54 PM 42.1161 -111.6636 218° Southwest 346 398 26,000  Level Salt Lake Center
Sun 10:35:55 PM 42.0408 -111.7450 219° Southwest 348 400 26,000  Level Salt Lake Center
Sun 10:36:57 PM 41.9508 -111.8414 219° Southwest 348 400 26,000 -48 Level Salt Lake Center
Sun 10:37:59 PM 41.8731 -111.9219 218° Southwest 352 405 25,900 -1,016 Descending Salt Lake Center
Sun 10:39:01 PM 41.7989 -112.0008 218° Southwest 347 399 23,900 -2,111 Descending Salt Lake Center
Sun 10:39:47 PM 41.7192 -112.0122 186° South 347 399 22,100 -2,024 Descending Salt Lake Center
Sun 10:40:24 PM 41.6672 -112.0214 188° South 342 394 21,100 -1,714 Descending Salt Lake Center
Sun 10:41:04 PM 41.6119 -112.0378 192° South 337 388 19,900 -1,882 Descending Salt Lake Center
Sun 10:42:06 PM 41.5203 -112.0525 187° South 334 384 17,900 -1,951 Descending Salt Lake Center
Sun 10:43:07 PM 41.4122 -112.0731 188° South 327 376 15,900 -1,707 Descending Salt Lake Center
Sun 10:44:09 PM 41.3294 -112.0917 190° South 306 352 14,400 -1,452 Descending Salt Lake Center
Sun 10:45:11 PM 41.2503 -112.1089 189° South 291 335 12,900 -1,463 Descending Salt Lake Center
Sun 10:46:12 PM 41.1728 -112.1253 189° South 286 329 11,400 -857 Descending Salt Lake Center
Sun 10:47:24 PM 41.0689 -112.1431 187° South 295 339 11,000 -195 Descending Salt Lake Center
Sun 10:48:15 PM 41.0128 -112.1319 172° South 292 336 11,000  Level Salt Lake Center
Sun 10:49:17 PM 40.9172 -112.1125 171° South 294 338 11,000  Level Salt Lake Center
Sun 10:50:19 PM 40.8453 -112.1028 174° South 254 292 11,000 -439 Level Salt Lake Center
Sun 10:51:20 PM 40.7786 -112.0947 175° South 242 278 10,100 -976 Descending Salt Lake Center
Sun 10:52:22 PM 40.7114 -112.0869 175° South 244 281 9,000 -1,463 Descending Salt Lake Center
Sun 10:53:23 PM 40.6503 -112.0606 162° South 223 257 7,100 -1,388 Descending Salt Lake Center
Sun 10:54:23 PM 40.6611 -111.9947 78° East 181 208 6,200 -843 Descending Salt Lake Center
Sun 10:55:24 PM 40.7056 -111.9911 North 156 180 5,400 -738 Descending Salt Lake Center
Sun 10:56:25 PM 40.7469 -111.9939 357° North 151 174 4,700 -576 Descending Salt Lake Center
Sun 10:57:29 PM 40.7908 -111.9972 357° North 145 167 4,200 -469 Descending Salt Lake Center

Login

Don't have an account? Register now (free) for customized features, flight alerts, and more!